createdAt,value
2023-04-09T00:02:20.436Z,100546.66
2023-04-09T00:04:49.740Z,100547.09
2023-04-09T00:07:17.935Z,100536.72
2023-04-09T00:09:46.417Z,100544.50
2023-04-09T00:12:15.579Z,100541.69
2023-04-09T00:14:43.851Z,100550.00
2023-04-09T00:17:12.136Z,100546.44
2023-04-09T00:19:40.887Z,100546.34
2023-04-09T00:22:08.956Z,100551.41
2023-04-09T00:24:37.039Z,100545.44
2023-04-09T00:27:05.466Z,100535.22
2023-04-09T00:29:33.609Z,100542.94
2023-04-09T00:32:02.046Z,100543.84
2023-04-09T00:34:30.752Z,100548.81
2023-04-09T00:36:59.726Z,100546.25
2023-04-09T00:39:28.315Z,100544.44
2023-04-09T00:41:59.080Z,100545.25
2023-04-09T00:44:27.199Z,100540.38
2023-04-09T00:46:55.728Z,100525.06
2023-04-09T00:49:26.370Z,100535.53
2023-04-09T00:51:55.245Z,100532.88
2023-04-09T00:54:23.990Z,100544.50
2023-04-09T00:56:52.660Z,100545.16
2023-04-09T00:59:20.845Z,100541.69
2023-04-09T01:01:49.659Z,100535.72
2023-04-09T01:04:18.607Z,100535.53
2023-04-09T01:06:59.126Z,100537.03
2023-04-09T01:09:42.563Z,100527.06
2023-04-09T01:12:34.725Z,100539.22
2023-04-09T01:15:07.190Z,100521.91
2023-04-09T01:17:45.167Z,100532.88
2023-04-09T01:20:34.159Z,100533.13
2023-04-09T01:23:11.319Z,100532.78
2023-04-09T01:25:50.589Z,100538.94
2023-04-09T01:28:33.480Z,100526.06
2023-04-09T01:31:07.673Z,100535.53
2023-04-09T01:33:38.330Z,100533.56
2023-04-09T01:36:07.938Z,100529.56
2023-04-09T01:38:39.885Z,100531.22
2023-04-09T01:41:14.966Z,100529.47
2023-04-09T01:43:45.732Z,100538.69
2023-04-09T01:46:16.058Z,100534.56
2023-04-09T01:48:44.906Z,100534.56
2023-04-09T01:51:14.475Z,100534.63
2023-04-09T01:53:42.924Z,100539.72
2023-04-09T01:56:11.234Z,100545.00
2023-04-09T01:58:41.018Z,100540.03
2023-04-09T02:01:09.612Z,100540.38
2023-04-09T02:03:46.697Z,100537.22
2023-04-09T02:06:23.974Z,100542.34
2023-04-09T02:08:54.029Z,100540.62
2023-04-09T02:11:24.098Z,100530.38
2023-04-09T02:13:56.221Z,100531.87
2023-04-09T02:16:27.423Z,100528.00
2023-04-09T02:18:57.075Z,100535.53
2023-04-09T02:21:27.172Z,100539.88
2023-04-09T02:23:56.158Z,100533.72
2023-04-09T02:26:25.664Z,100535.37
2023-04-09T02:28:54.791Z,100530.22
2023-04-09T02:31:22.992Z,100519.91
2023-04-09T02:33:51.746Z,100543.19
2023-04-09T02:36:20.353Z,100535.37
2023-04-09T02:38:49.341Z,100542.94
2023-04-09T02:41:18.383Z,100532.88
2023-04-09T02:43:47.103Z,100523.25
2023-04-09T02:46:15.360Z,100528.91
2023-04-09T02:48:43.612Z,100529.63
2023-04-09T02:51:12.218Z,100522.69
2023-04-09T02:53:41.135Z,100530.41
2023-04-09T02:56:09.307Z,100525.56
2023-04-09T02:58:38.232Z,100527.56
2023-04-09T03:01:06.460Z,100516.28
2023-04-09T03:03:35.114Z,100523.16
2023-04-09T03:06:03.934Z,100525.72
2023-04-09T03:08:32.116Z,100523.75
2023-04-09T03:11:01.114Z,100528.91
2023-04-09T03:13:30.092Z,100534.12
2023-04-09T03:15:58.282Z,100531.31
2023-04-09T03:18:27.028Z,100531.31
2023-04-09T03:20:55.821Z,100520.00
2023-04-09T03:23:24.516Z,100530.12
2023-04-09T03:26:06.115Z,100532.66
2023-04-09T03:28:35.589Z,100542.28
2023-04-09T03:31:03.882Z,100521.34
2023-04-09T03:33:33.390Z,100534.06
2023-04-09T03:36:01.976Z,100530.53
2023-04-09T03:38:31.459Z,100531.41
2023-04-09T03:41:00.974Z,100539.75
2023-04-09T03:43:29.901Z,100524.25
2023-04-09T03:45:58.097Z,100531.97
2023-04-09T03:48:27.009Z,100520.75
2023-04-09T03:50:55.853Z,100519.09
2023-04-09T03:53:25.140Z,100522.59
2023-04-09T03:55:56.008Z,100539.53
2023-04-09T03:58:24.736Z,100532.97
2023-04-09T04:00:54.711Z,100544.00
2023-04-09T04:03:24.214Z,100529.47
2023-04-09T04:05:53.574Z,100534.69
2023-04-09T04:08:21.754Z,100538.84
2023-04-09T04:10:50.458Z,100549.91
2023-04-09T04:13:18.722Z,100548.56
2023-04-09T04:15:47.777Z,100547.59
2023-04-09T04:18:17.136Z,100549.00
2023-04-09T04:20:45.511Z,100553.16
2023-04-09T04:23:13.795Z,100552.16
2023-04-09T04:25:43.376Z,100547.56
2023-04-09T04:28:12.860Z,100559.94
2023-04-09T04:30:42.809Z,100546.16
2023-04-09T04:33:11.596Z,100545.16
2023-04-09T04:35:40.502Z,100554.75
2023-04-09T04:38:09.357Z,100552.91
2023-04-09T04:40:38.413Z,100553.31
2023-04-09T04:43:06.790Z,100551.31
2023-04-09T04:45:35.251Z,100548.66
2023-04-09T04:48:04.456Z,100561.38
2023-04-09T04:50:33.074Z,100561.31
2023-04-09T04:53:01.710Z,100570.09
2023-04-09T04:55:30.535Z,100563.28
2023-04-09T04:58:00.295Z,100570.91
2023-04-09T05:00:29.047Z,100572.00
2023-04-09T05:03:00.855Z,100573.56
2023-04-09T05:05:29.266Z,100556.56
2023-04-09T05:07:57.977Z,100576.06
2023-04-09T05:10:27.169Z,100567.62
2023-04-09T05:12:57.062Z,100570.25
2023-04-09T05:15:26.406Z,100578.31
2023-04-09T05:17:55.378Z,100570.66
2023-04-09T05:20:23.868Z,100576.84
2023-04-09T05:22:53.016Z,100578.97
2023-04-09T05:25:28.403Z,100570.00
2023-04-09T05:27:57.547Z,100570.00
2023-04-09T05:30:26.532Z,100569.59
2023-04-09T05:32:56.109Z,100569.41
2023-04-09T05:35:26.972Z,100571.75
2023-04-09T05:37:55.213Z,100579.72
2023-04-09T05:40:23.636Z,100577.72
2023-04-09T05:42:52.677Z,100578.53
2023-04-09T05:45:22.347Z,100585.84
2023-04-09T05:47:51.896Z,100577.84
2023-04-09T05:50:20.775Z,100586.25
2023-04-09T05:52:49.666Z,100590.47
2023-04-09T05:55:18.438Z,100584.78
2023-04-09T05:57:47.545Z,100591.25
2023-04-09T06:00:16.721Z,100594.13
2023-04-09T06:02:45.788Z,100591.31
2023-04-09T06:05:14.413Z,100606.22
2023-04-09T06:07:42.696Z,100602.22
2023-04-09T06:10:11.526Z,100601.12
2023-04-09T06:12:40.980Z,100601.34
2023-04-09T06:15:11.041Z,100591.22
2023-04-09T06:17:39.915Z,100608.09
2023-04-09T06:20:08.948Z,100609.84
2023-04-09T06:22:37.610Z,100599.25
2023-04-09T06:25:06.437Z,100601.19
2023-04-09T06:27:34.797Z,100597.19
2023-04-09T06:30:03.063Z,100604.72
2023-04-09T06:32:33.635Z,100614.31
2023-04-09T06:35:10.838Z,100606.37
2023-04-09T06:37:39.299Z,100603.44
2023-04-09T06:40:08.324Z,100599.19
2023-04-09T06:42:36.651Z,100602.31
2023-04-09T06:45:08.952Z,100608.59
2023-04-09T06:47:37.557Z,100611.47
2023-04-09T06:50:06.244Z,100607.56
2023-04-09T06:52:34.764Z,100620.19
2023-04-09T06:55:03.392Z,100618.72
2023-04-09T06:57:31.825Z,100621.97
2023-04-09T07:00:00.039Z,100617.91
2023-04-09T07:02:29.135Z,100614.88
2023-04-09T07:04:57.965Z,100619.84
2023-04-09T07:07:26.466Z,100630.16
2023-04-09T07:09:55.522Z,100622.78
2023-04-09T07:12:31.447Z,100627.56
2023-04-09T07:15:01.163Z,100628.34
2023-04-09T07:17:30.754Z,100626.41
2023-04-09T07:19:58.903Z,100634.31
2023-04-09T07:22:29.010Z,100634.97
2023-04-09T07:24:57.397Z,100639.94
2023-04-09T07:27:27.847Z,100635.59
2023-04-09T07:29:59.666Z,100637.97
2023-04-09T07:32:28.719Z,100644.53
2023-04-09T07:34:59.459Z,100642.69
2023-04-09T07:37:27.629Z,100636.25
2023-04-09T07:39:57.237Z,100639.81
2023-04-09T07:42:25.814Z,100637.88
2023-04-09T07:44:54.644Z,100646.19
2023-04-09T07:47:23.452Z,100644.78
2023-04-09T07:49:52.282Z,100637.66
2023-04-09T07:52:20.383Z,100649.09
2023-04-09T07:54:48.599Z,100646.13
2023-04-09T07:57:17.077Z,100640.84
2023-04-09T07:59:45.689Z,100636.34
2023-04-09T08:02:15.419Z,100649.50
2023-04-09T08:04:44.515Z,100646.16
2023-04-09T08:07:12.798Z,100635.44
2023-04-09T08:09:41.142Z,100647.22
2023-04-09T08:12:11.106Z,100652.66
2023-04-09T08:14:44.577Z,100644.56
2023-04-09T08:17:13.206Z,100648.94
2023-04-09T08:19:42.055Z,100657.19
2023-04-09T08:22:10.554Z,100654.00
2023-04-09T08:24:40.261Z,100650.41
2023-04-09T08:27:08.323Z,100652.81
2023-04-09T08:29:36.570Z,100656.12
2023-04-09T08:32:05.615Z,100654.91
2023-04-09T08:34:33.721Z,100664.19
2023-04-09T08:37:02.652Z,100660.31
2023-04-09T08:39:31.248Z,100666.84
2023-04-09T08:42:03.464Z,100675.09
2023-04-09T08:44:32.086Z,100663.97
2023-04-09T08:47:00.502Z,100674.34
2023-04-09T08:49:28.821Z,100673.56
2023-04-09T08:51:57.535Z,100680.87
2023-04-09T08:54:26.912Z,100683.69
2023-04-09T08:56:55.108Z,100675.19
2023-04-09T08:59:23.701Z,100686.59
2023-04-09T09:02:08.143Z,100684.53
2023-04-09T09:04:47.999Z,100690.94
2023-04-09T09:07:17.809Z,100682.44
2023-04-09T09:09:54.799Z,100691.94
2023-04-09T09:12:36.722Z,100693.94
2023-04-09T09:15:11.803Z,100693.47
2023-04-09T09:17:55.767Z,100699.31
2023-04-09T09:20:25.119Z,100692.50
2023-04-09T09:22:55.730Z,100698.06
2023-04-09T09:25:26.603Z,100698.16
2023-04-09T09:27:55.437Z,100691.91
2023-04-09T09:30:26.044Z,100698.13
2023-04-09T09:33:05.135Z,100689.09
2023-04-09T09:35:54.424Z,100701.63
2023-04-09T09:38:23.251Z,100702.28
2023-04-09T09:40:52.608Z,100695.69
2023-04-09T09:43:21.529Z,100694.06
2023-04-09T09:45:50.270Z,100690.34
2023-04-09T09:48:18.692Z,100693.34
2023-04-09T09:50:49.571Z,100685.41
2023-04-09T09:53:23.134Z,100685.56
2023-04-09T09:55:57.281Z,100680.41
2023-04-09T09:58:32.954Z,100686.09
2023-04-09T10:01:03.560Z,100675.97
2023-04-09T10:03:35.046Z,100675.03
2023-04-09T10:06:04.500Z,100681.94
2023-04-09T10:08:36.377Z,100682.56
2023-04-09T10:11:06.930Z,100683.56
2023-04-09T10:13:40.353Z,100677.87
2023-04-09T10:16:09.127Z,100687.75
2023-04-09T10:18:38.654Z,100684.69
2023-04-09T10:21:20.407Z,100670.91
2023-04-09T10:23:51.121Z,100677.63
2023-04-09T10:26:20.352Z,100674.91
2023-04-09T10:29:14.168Z,100679.72
2023-04-09T10:32:03.803Z,100676.97
2023-04-09T10:34:36.479Z,100680.53
2023-04-09T10:37:08.463Z,100678.19
2023-04-09T10:39:44.616Z,100676.03
2023-04-09T10:42:15.800Z,100676.66
2023-04-09T10:44:44.544Z,100669.03
2023-04-09T10:47:31.168Z,100676.78
2023-04-09T10:50:36.466Z,100675.91
2023-04-09T10:53:07.488Z,100670.25
2023-04-09T10:55:39.964Z,100678.09
2023-04-09T10:58:13.573Z,100668.28
2023-04-09T11:00:47.524Z,100679.94
2023-04-09T11:03:32.602Z,100692.47
2023-04-09T11:06:02.279Z,100677.75
2023-04-09T11:08:34.329Z,100680.16
2023-04-09T11:11:03.810Z,100681.72
2023-04-09T11:13:32.653Z,100685.28
2023-04-09T11:16:03.473Z,100673.66
2023-04-09T11:18:34.877Z,100680.87
2023-04-09T11:21:04.866Z,100670.09
2023-04-09T11:23:34.437Z,100680.66
2023-04-09T11:26:02.984Z,100673.66
2023-04-09T11:28:31.535Z,100670.66
2023-04-09T11:31:00.214Z,100670.87
2023-04-09T11:33:33.553Z,100668.00
2023-04-09T11:36:06.494Z,100667.63
2023-04-09T11:38:36.908Z,100671.56
2023-04-09T11:41:05.533Z,100676.31
2023-04-09T11:43:36.725Z,100666.38
2023-04-09T11:46:06.158Z,100668.53
2023-04-09T11:48:35.847Z,100659.28
2023-04-09T11:51:04.334Z,100668.78
2023-04-09T11:53:32.666Z,100667.37
2023-04-09T11:56:01.714Z,100654.37
2023-04-09T11:58:29.878Z,100664.28
2023-04-09T12:01:02.360Z,100653.34
2023-04-09T12:03:33.244Z,100662.41
2023-04-09T12:06:03.495Z,100653.06
2023-04-09T12:08:35.476Z,100656.25
2023-04-09T12:11:15.667Z,100654.09
2023-04-09T12:13:46.264Z,100657.91
2023-04-09T12:16:15.119Z,100655.03
2023-04-09T12:18:43.974Z,100659.50
2023-04-09T12:21:12.902Z,100656.97
2023-04-09T12:23:41.181Z,100657.31
2023-04-09T12:26:10.210Z,100648.00
2023-04-09T12:28:38.453Z,100648.00
2023-04-09T12:31:10.244Z,100650.59
2023-04-09T12:33:40.613Z,100648.47
2023-04-09T12:36:08.828Z,100641.63
2023-04-09T12:38:36.884Z,100638.28
2023-04-09T12:41:05.766Z,100645.44
2023-04-09T12:43:33.917Z,100640.53
2023-04-09T12:46:02.178Z,100630.34
2023-04-09T12:48:30.708Z,100637.78
2023-04-09T12:50:59.028Z,100638.78
2023-04-09T12:53:27.347Z,100632.94
2023-04-09T12:55:55.931Z,100632.12
2023-04-09T12:58:24.373Z,100628.56
2023-04-09T13:00:53.719Z,100634.91
2023-04-09T13:03:23.059Z,100631.91
2023-04-09T13:05:51.636Z,100625.00
2023-04-09T13:08:19.627Z,100627.41
2023-04-09T13:10:48.053Z,100623.63
2023-04-09T13:13:16.574Z,100624.81
2023-04-09T13:15:45.526Z,100617.56
2023-04-09T13:18:14.547Z,100610.31
2023-04-09T13:20:43.054Z,100610.03
2023-04-09T13:23:11.322Z,100609.41
2023-04-09T13:25:39.778Z,100612.34
2023-04-09T13:28:07.890Z,100617.84
2023-04-09T13:30:36.510Z,100616.69
2023-04-09T13:33:05.308Z,100613.78
2023-04-09T13:35:33.707Z,100610.66
2023-04-09T13:38:01.823Z,100617.47
2023-04-09T13:40:30.643Z,100606.53
2023-04-09T13:42:58.992Z,100603.94
2023-04-09T13:45:27.205Z,100603.72
2023-04-09T13:47:55.786Z,100604.13
2023-04-09T13:50:24.089Z,100603.06
2023-04-09T13:52:52.205Z,100602.34
2023-04-09T13:55:20.893Z,100600.06
2023-04-09T13:57:49.073Z,100597.06
2023-04-09T14:00:17.618Z,100604.47
2023-04-09T14:02:46.813Z,100600.13
2023-04-09T14:05:15.074Z,100596.53
2023-04-09T14:07:43.282Z,100594.13
2023-04-09T14:10:11.852Z,100595.81
2023-04-09T14:12:40.320Z,100590.91
2023-04-09T14:15:10.190Z,100599.56
2023-04-09T14:17:39.828Z,100598.00
2023-04-09T14:20:08.535Z,100592.78
2023-04-09T14:22:37.018Z,100589.66
2023-04-09T14:25:06.171Z,100585.28
2023-04-09T14:27:34.424Z,100590.13
2023-04-09T14:30:03.528Z,100577.91
2023-04-09T14:32:33.205Z,100582.44
2023-04-09T14:35:02.059Z,100578.09
2023-04-09T14:37:30.768Z,100587.44
2023-04-09T14:39:59.328Z,100573.16
2023-04-09T14:42:27.774Z,100574.22
2023-04-09T14:44:56.246Z,100576.56
2023-04-09T14:47:24.845Z,100568.97
2023-04-09T14:49:53.243Z,100573.09
2023-04-09T14:52:21.841Z,100577.38
2023-04-09T14:54:50.744Z,100568.31
2023-04-09T14:57:18.792Z,100563.38
2023-04-09T14:59:47.408Z,100569.31
2023-04-09T15:02:16.684Z,100574.97
2023-04-09T15:04:44.986Z,100572.91
2023-04-09T15:07:13.329Z,100576.72
2023-04-09T15:09:42.768Z,100571.84
2023-04-09T15:12:10.968Z,100574.38
2023-04-09T15:14:39.420Z,100568.38
2023-04-09T15:17:08.134Z,100571.38
2023-04-09T15:19:36.537Z,100569.25
2023-04-09T15:22:05.030Z,100566.97
2023-04-09T15:24:33.603Z,100562.69
2023-04-09T15:27:01.983Z,100564.62
2023-04-09T15:29:30.701Z,100567.38
2023-04-09T15:31:59.469Z,100569.44
2023-04-09T15:34:27.729Z,100564.44
2023-04-09T15:36:57.131Z,100565.13
2023-04-09T15:39:28.617Z,100560.03
2023-04-09T15:41:57.641Z,100571.03
2023-04-09T15:44:26.661Z,100569.97
2023-04-09T15:46:54.987Z,100566.97
2023-04-09T15:49:23.409Z,100570.28
2023-04-09T15:51:51.891Z,100581.19
2023-04-09T15:54:20.412Z,100573.56
2023-04-09T15:56:48.771Z,100556.78
2023-04-09T15:59:18.933Z,100565.69
2023-04-09T16:01:47.538Z,100558.22
2023-04-09T16:04:16.271Z,100568.63
2023-04-09T16:06:44.498Z,100567.47
2023-04-09T16:09:12.904Z,100565.13
2023-04-09T16:11:41.468Z,100573.38
2023-04-09T16:14:09.824Z,100571.16
2023-04-09T16:16:38.805Z,100566.03
2023-04-09T16:19:07.586Z,100571.66
2023-04-09T16:21:36.108Z,100573.19
2023-04-09T16:24:04.528Z,100576.28
2023-04-09T16:26:32.996Z,100573.47
2023-04-09T16:29:04.084Z,100572.19
2023-04-09T16:31:32.915Z,100569.47
2023-04-09T16:34:01.368Z,100567.56
2023-04-09T16:36:31.579Z,100573.13
2023-04-09T16:39:00.553Z,100567.09
2023-04-09T16:41:29.352Z,100565.31
2023-04-09T16:43:57.360Z,100570.53
2023-04-09T16:46:26.132Z,100572.28
2023-04-09T16:48:55.124Z,100567.59
2023-04-09T16:51:23.580Z,100570.53
2023-04-09T16:53:53.269Z,100575.50
2023-04-09T16:56:21.432Z,100570.66
2023-04-09T16:58:49.839Z,100572.19
2023-04-09T17:01:18.713Z,100568.53
2023-04-09T17:03:50.173Z,100572.44
2023-04-09T17:06:19.464Z,100565.72
2023-04-09T17:08:47.650Z,100565.94
2023-04-09T17:11:17.393Z,100569.34
2023-04-09T17:13:46.490Z,100561.56
2023-04-09T17:16:15.548Z,100559.44
2023-04-09T17:18:45.379Z,100562.19
2023-04-09T17:21:14.444Z,100563.69
2023-04-09T17:23:44.196Z,100559.66
2023-04-09T17:26:12.220Z,100563.91
2023-04-09T17:28:42.436Z,100561.88
2023-04-09T17:31:15.752Z,100564.72
2023-04-09T17:33:47.146Z,100572.13
2023-04-09T17:36:18.972Z,100568.13
2023-04-09T17:38:47.897Z,100573.06
2023-04-09T17:41:16.403Z,100574.69
2023-04-09T17:43:44.543Z,100569.75
2023-04-09T17:46:13.070Z,100579.03
2023-04-09T17:48:41.859Z,100575.13
2023-04-09T17:51:15.092Z,100575.87
2023-04-09T17:53:43.803Z,100573.50
2023-04-09T17:56:18.167Z,100585.75
2023-04-09T17:58:47.353Z,100583.97
2023-04-09T18:01:15.766Z,100595.53
2023-04-09T18:03:48.775Z,100594.69
2023-04-09T18:06:17.447Z,100595.50
2023-04-09T18:08:46.027Z,100602.69
2023-04-09T18:11:15.614Z,100602.81
2023-04-09T18:13:43.728Z,100607.88
2023-04-09T18:16:12.661Z,100604.44
2023-04-09T18:18:41.410Z,100608.31
2023-04-09T18:21:09.704Z,100615.81
2023-04-09T18:23:40.400Z,100616.44
2023-04-09T18:26:08.981Z,100616.97
2023-04-09T18:28:37.632Z,100619.06
2023-04-09T18:31:06.006Z,100620.72
2023-04-09T18:33:34.272Z,100609.13
2023-04-09T18:36:02.919Z,100630.22
2023-04-09T18:38:31.662Z,100624.75
2023-04-09T18:41:01.357Z,100630.47
2023-04-09T18:43:29.995Z,100635.25
2023-04-09T18:46:01.034Z,100627.06
2023-04-09T18:48:31.572Z,100632.59
2023-04-09T18:51:01.638Z,100625.66
2023-04-09T18:53:31.114Z,100637.16
2023-04-09T18:55:59.345Z,100629.81
2023-04-09T18:58:27.837Z,100626.72
2023-04-09T19:00:56.938Z,100635.94
2023-04-09T19:03:26.199Z,100641.31
2023-04-09T19:05:56.392Z,100638.97
2023-04-09T19:08:24.464Z,100639.78
2023-04-09T19:10:53.645Z,100631.47
2023-04-09T19:13:22.367Z,100642.47
2023-04-09T19:15:52.529Z,100642.06
2023-04-09T19:18:22.851Z,100631.91
2023-04-09T19:20:51.656Z,100633.87
2023-04-09T19:23:20.415Z,100637.91
2023-04-09T19:25:55.797Z,100636.25
2023-04-09T19:28:27.710Z,100634.56
2023-04-09T19:30:56.879Z,100639.41
2023-04-09T19:33:27.038Z,100637.88
2023-04-09T19:35:55.946Z,100635.59
2023-04-09T19:38:24.665Z,100635.16
2023-04-09T19:40:53.512Z,100635.06
2023-04-09T19:43:21.899Z,100645.72
2023-04-09T19:45:51.212Z,100636.81
2023-04-09T19:48:22.728Z,100630.63
2023-04-09T19:50:52.736Z,100635.09
2023-04-09T19:53:21.285Z,100636.03
2023-04-09T19:55:49.466Z,100642.09
2023-04-09T19:58:18.267Z,100645.25
2023-04-09T20:00:46.626Z,100643.78
2023-04-09T20:03:15.804Z,100644.19
2023-04-09T20:05:44.201Z,100634.47
2023-04-09T20:08:15.773Z,100646.78
2023-04-09T20:10:46.930Z,100646.97
2023-04-09T20:13:15.185Z,100633.16
2023-04-09T20:15:43.687Z,100641.19
2023-04-09T20:18:12.878Z,100639.53
2023-04-09T20:20:41.154Z,100634.91
2023-04-09T20:23:09.420Z,100640.44
2023-04-09T20:25:38.023Z,100646.84
2023-04-09T20:28:06.488Z,100644.37
2023-04-09T20:30:34.718Z,100641.91
2023-04-09T20:33:03.525Z,100646.56
2023-04-09T20:35:35.490Z,100641.78
2023-04-09T20:38:04.773Z,100643.03
2023-04-09T20:40:36.592Z,100639.63
2023-04-09T20:43:05.074Z,100642.47
2023-04-09T20:45:33.471Z,100635.38
2023-04-09T20:48:03.458Z,100636.84
2023-04-09T20:50:32.206Z,100633.31
2023-04-09T20:53:00.709Z,100646.84
2023-04-09T20:55:28.800Z,100640.13
2023-04-09T20:57:58.386Z,100636.66
2023-04-09T21:00:28.732Z,100644.44
2023-04-09T21:02:57.171Z,100645.66
2023-04-09T21:05:33.963Z,100640.28
2023-04-09T21:08:02.712Z,100648.47
2023-04-09T21:10:31.099Z,100636.91
2023-04-09T21:12:59.395Z,100638.47
2023-04-09T21:15:27.879Z,100640.56
2023-04-09T21:17:56.024Z,100647.00
2023-04-09T21:20:24.458Z,100649.84
2023-04-09T21:22:54.231Z,100646.56
2023-04-09T21:25:22.346Z,100643.50
2023-04-09T21:27:50.773Z,100645.53
2023-04-09T21:30:20.368Z,100643.66
2023-04-09T21:32:48.529Z,100640.72
2023-04-09T21:35:16.878Z,100631.78
2023-04-09T21:37:45.209Z,100633.25
2023-04-09T21:40:13.741Z,100630.13
2023-04-09T21:42:43.609Z,100618.69
2023-04-09T21:45:12.205Z,100623.63
2023-04-09T21:47:40.608Z,100621.75
2023-04-09T21:50:09.449Z,100627.50
2023-04-09T21:52:38.344Z,100627.22
2023-04-09T21:55:07.160Z,100635.75
2023-04-09T21:57:35.530Z,100628.44
2023-04-09T22:00:05.411Z,100629.87
2023-04-09T22:02:35.372Z,100635.88
2023-04-09T22:05:04.271Z,100637.91
2023-04-09T22:07:32.569Z,100636.00
2023-04-09T22:10:01.571Z,100643.66
2023-04-09T22:12:30.275Z,100648.06
2023-04-09T22:14:58.326Z,100643.25
2023-04-09T22:17:26.496Z,100638.81
2023-04-09T22:19:55.306Z,100648.31
2023-04-09T22:22:23.523Z,100644.34
2023-04-09T22:24:52.050Z,100645.28
2023-04-09T22:27:20.764Z,100649.78
2023-04-09T22:29:49.517Z,100644.91
2023-04-09T22:32:17.942Z,100649.34
2023-04-09T22:34:46.828Z,100646.41
2023-04-09T22:37:17.065Z,100652.22
2023-04-09T22:39:45.335Z,100647.00
2023-04-09T22:42:14.098Z,100648.13
2023-04-09T22:44:42.610Z,100636.38
2023-04-09T22:47:10.870Z,100641.31
2023-04-09T22:49:39.750Z,100649.41
2023-04-09T22:52:08.215Z,100651.66
2023-04-09T22:54:37.977Z,100651.00
2023-04-09T22:57:06.407Z,100653.66
2023-04-09T23:02:08.400Z,100650.97
2023-04-09T23:04:36.824Z,100647.50
2023-04-09T23:07:05.021Z,100643.19
2023-04-09T23:09:33.653Z,100642.34
2023-04-09T23:12:02.952Z,100641.63
2023-04-09T23:14:31.178Z,100646.00
2023-04-09T23:16:59.777Z,100644.34
2023-04-09T23:19:27.984Z,100639.94
2023-04-09T23:21:56.317Z,100631.16
2023-04-09T23:24:24.902Z,100635.72
2023-04-09T23:26:53.146Z,100645.50
2023-04-09T23:29:21.303Z,100636.87
2023-04-09T23:31:50.571Z,100637.34
2023-04-09T23:34:18.940Z,100633.19
2023-04-09T23:36:46.992Z,100633.06
2023-04-09T23:39:15.613Z,100631.16
2023-04-09T23:41:43.930Z,100633.25
2023-04-09T23:44:11.991Z,100631.16
2023-04-09T23:46:40.627Z,100631.16
2023-04-09T23:49:08.755Z,100631.06
2023-04-09T23:51:36.994Z,100636.13
2023-04-09T23:54:05.859Z,100625.44
2023-04-09T23:56:33.987Z,100629.06
2023-04-09T23:59:02.207Z,100630.91
